Time;durP1;ratioP1;P1;durP2;ratioP2;P2;SDS_P1;SDS_P2;PMS_P1;PMS_P2;Temp;Humidity;BMP_temperature;BMP_pressure;BME280_temperature;BME280_humidity;BME280_pressure;Samples;Min_cycle;Max_cycle;Signal;HPM_P1;HPM_P2
2023/05/22 00:00:07;;;;;;;9.40;6.53;;;16.70;99.90;;;;;;5034379;28;20428;-75
2023/05/22 00:02:37;;;;;;;11.18;6.32;;;16.70;99.90;;;;;;5042683;28;20048;-76
2023/05/22 00:05:05;;;;;;;11.43;6.72;;;16.70;99.90;;;;;;5039423;28;20572;-76
2023/05/22 00:07:32;;;;;;;8.98;6.32;;;16.70;99.90;;;;;;5044740;28;20099;-76
2023/05/22 00:09:59;;;;;;;7.18;5.82;;;16.70;99.90;;;;;;5046326;28;20139;-76
2023/05/22 00:12:25;;;;;;;7.05;5.60;;;16.70;99.90;;;;;;5041595;28;20469;-76
2023/05/22 00:14:52;;;;;;;10.85;5.82;;;16.70;99.90;;;;;;5034143;28;20073;-75
2023/05/22 00:17:19;;;;;;;9.93;5.97;;;16.70;99.90;;;;;;5041576;28;20131;-76
2023/05/22 00:19:46;;;;;;;7.82;5.85;;;16.70;99.90;;;;;;5039896;28;20045;-76
2023/05/22 00:22:13;;;;;;;6.43;5.55;;;16.70;99.90;;;;;;5042521;28;20048;-76
2023/05/22 00:24:39;;;;;;;8.00;5.72;;;16.70;99.90;;;;;;5043846;28;20518;-76
2023/05/22 00:27:06;;;;;;;6.40;5.70;;;16.70;99.90;;;;;;5041981;28;20045;-76
2023/05/22 00:29:33;;;;;;;6.63;5.82;;;16.70;99.90;;;;;;5035028;28;20045;-76
2023/05/22 00:32:00;;;;;;;10.60;5.22;;;16.70;99.90;;;;;;5039816;28;20042;-76
2023/05/22 00:34:26;;;;;;;6.10;5.50;;;16.70;99.90;;;;;;5040409;28;20164;-76
2023/05/22 00:36:53;;;;;;;6.65;5.40;;;16.70;99.90;;;;;;5042843;28;20387;-76
2023/05/22 00:39:20;;;;;;;7.88;5.22;;;16.70;99.90;;;;;;5037509;28;20079;-76
2023/05/22 00:41:47;;;;;;;6.40;5.15;;;16.70;99.90;;;;;;5034042;28;20041;-77
2023/05/22 00:44:14;;;;;;;5.20;4.13;;;16.70;99.90;;;;;;5039037;28;20049;-76
2023/05/22 00:46:41;;;;;;;5.32;4.35;;;16.70;99.90;;;;;;5039691;28;20041;-76
2023/05/22 00:49:08;;;;;;;6.63;5.10;;;16.70;99.90;;;;;;5039679;28;20049;-76
2023/05/22 00:51:35;;;;;;;5.70;4.88;;;16.70;99.90;;;;;;5041280;28;20041;-76
2023/05/22 00:54:03;;;;;;;5.97;4.88;;;16.70;99.90;;;;;;5042805;28;20045;-76
2023/05/22 00:56:30;;;;;;;6.40;5.18;;;16.70;99.90;;;;;;5044211;28;20469;-76
2023/05/22 00:58:57;;;;;;;6.28;4.70;;;16.70;99.90;;;;;;5036588;28;20120;-76
2023/05/22 01:01:25;;;;;;;8.05;5.07;;;16.70;99.90;;;;;;5044705;28;20045;-75
2023/05/22 01:03:52;;;;;;;6.07;4.80;;;16.70;99.90;;;;;;5040315;28;20056;-77
2023/05/22 01:06:23;;;;;;;7.15;5.15;;;16.70;99.90;;;;;;5035678;28;20045;-75
2023/05/22 01:08:49;;;;;;;5.25;4.30;;;16.60;99.90;;;;;;5041795;28;20045;-76
2023/05/22 01:11:47;;;;;;;5.18;4.65;;;16.60;99.90;;;;;;5044114;28;20540;-76
2023/05/22 01:14:29;;;;;;;5.95;4.40;;;16.60;99.90;;;;;;5007321;28;20542;-76
2023/05/22 01:17:39;;;;;;;5.78;4.40;;;16.60;99.90;;;;;;5042160;28;20049;-76
2023/05/22 01:20:34;;;;;;;4.90;4.40;;;16.60;99.90;;;;;;4962345;28;20053;-76
2023/05/22 01:23:25;;;;;;;7.78;5.25;;;16.60;99.90;;;;;;5039717;28;20292;-77
2023/05/22 01:26:34;;;;;;;6.53;4.65;;;16.60;99.90;;;;;;5041377;28;20048;-75
2023/05/22 01:29:27;;;;;;;5.65;4.25;;;16.50;99.90;;;;;;5008685;28;20052;-76
2023/05/22 01:31:57;;;;;;;7.20;5.30;;;16.50;99.90;;;;;;5046715;28;20045;-75
2023/05/22 01:34:25;;;;;;;7.80;5.30;;;16.40;99.90;;;;;;5041553;28;20095;-76
2023/05/22 01:36:53;;;;;;;7.53;4.45;;;16.40;99.90;;;;;;5041735;28;20060;-76
2023/05/22 01:39:21;;;;;;;6.68;5.32;;;16.40;99.90;;;;;;5036281;28;20068;-76
2023/05/22 01:41:49;;;;;;;5.88;5.00;;;16.30;99.90;;;;;;5042348;28;20072;-76
2023/05/22 01:44:15;;;;;;;6.32;4.70;;;16.30;99.90;;;;;;5038205;28;20046;-75
2023/05/22 01:46:42;;;;;;;7.05;5.10;;;16.30;99.90;;;;;;5046108;28;20048;-76
2023/05/22 01:49:09;;;;;;;6.88;4.82;;;16.30;99.90;;;;;;5026307;28;20103;-77
2023/05/22 01:51:49;;;;;;;6.70;5.35;;;16.30;99.90;;;;;;5029474;28;20098;-75
2023/05/22 01:54:37;;;;;;;7.22;5.68;;;16.30;99.90;;;;;;5047355;28;20110;-77
2023/05/22 01:57:17;;;;;;;7.90;5.43;;;16.30;99.90;;;;;;5043876;28;20552;-76
2023/05/22 01:59:46;;;;;;;8.93;4.95;;;16.20;99.90;;;;;;5037789;28;20049;-76
2023/05/22 02:02:16;;;;;;;6.22;4.40;;;16.20;99.90;;;;;;5046830;28;20041;-76
2023/05/22 02:04:53;;;;;;;6.22;4.60;;;16.20;99.90;;;;;;5044121;28;20044;-76
2023/05/22 02:07:23;;;;;;;8.10;5.47;;;16.20;99.90;;;;;;5045569;28;20053;-75
2023/05/22 02:09:54;;;;;;;6.30;5.20;;;16.20;99.90;;;;;;5044426;28;20049;-76
2023/05/22 02:12:22;;;;;;;7.30;5.28;;;16.20;99.90;;;;;;5036314;28;20468;-75
2023/05/22 02:14:49;;;;;;;7.47;4.93;;;16.20;99.90;;;;;;5019683;28;20042;-75
2023/05/22 02:17:20;;;;;;;5.90;5.10;;;16.20;99.90;;;;;;5046625;28;20123;-76
2023/05/22 02:19:47;;;;;;;7.00;5.00;;;16.20;99.90;;;;;;5027510;28;20085;-77
2023/05/22 02:22:14;;;;;;;7.32;4.78;;;16.20;99.90;;;;;;5045526;28;20565;-76
2023/05/22 02:24:44;;;;;;;6.88;4.50;;;16.20;99.90;;;;;;5045567;28;20111;-77
2023/05/22 02:27:11;;;;;;;5.55;4.15;;;16.20;99.90;;;;;;5040604;28;20045;-76
2023/05/22 02:29:38;;;;;;;5.60;4.72;;;16.30;99.90;;;;;;5038272;28;20037;-76
2023/05/22 02:32:05;;;;;;;7.53;5.03;;;16.30;99.90;;;;;;5031406;28;20080;-75
2023/05/22 02:34:32;;;;;;;5.13;4.63;;;16.30;99.90;;;;;;5045113;28;20080;-76
2023/05/22 02:37:02;;;;;;;5.43;4.50;;;16.30;99.90;;;;;;5045639;28;20100;-76
2023/05/22 02:39:29;;;;;;;6.00;5.30;;;16.30;99.90;;;;;;5024912;28;20051;-77
2023/05/22 02:41:56;;;;;;;8.20;4.60;;;16.30;99.90;;;;;;5035754;28;20115;-76
2023/05/22 02:44:23;;;;;;;8.23;4.85;;;16.30;99.90;;;;;;5040901;28;20100;-77
2023/05/22 02:46:49;;;;;;;7.00;4.85;;;16.30;99.90;;;;;;5045005;28;20416;-76
2023/05/22 02:49:16;;;;;;;8.27;4.85;;;16.30;99.90;;;;;;5044414;28;20173;-76
2023/05/22 02:51:46;;;;;;;6.30;5.05;;;16.30;99.90;;;;;;5045126;28;20091;-76
2023/05/22 02:54:14;;;;;;;5.63;5.03;;;16.30;99.90;;;;;;5041513;28;20052;-76
2023/05/22 02:56:42;;;;;;;8.52;5.30;;;16.30;99.90;;;;;;5041357;28;20041;-76
2023/05/22 02:59:09;;;;;;;5.32;4.75;;;16.30;99.90;;;;;;5039163;28;20430;-76
2023/05/22 03:01:37;;;;;;;8.68;5.45;;;16.30;99.90;;;;;;5045306;28;20044;-75
2023/05/22 03:04:05;;;;;;;7.50;4.90;;;16.20;99.90;;;;;;5036515;28;20054;-76
2023/05/22 03:06:33;;;;;;;7.82;5.60;;;16.20;99.90;;;;;;5045845;28;20044;-76
2023/05/22 03:09:02;;;;;;;10.60;5.75;;;16.20;99.90;;;;;;5040688;28;20061;-76
2023/05/22 03:11:30;;;;;;;6.68;4.30;;;16.10;99.90;;;;;;5047278;28;20099;-76
2023/05/22 03:13:57;;;;;;;7.97;5.28;;;16.10;99.90;;;;;;5025794;28;20517;-76
2023/05/22 03:16:24;;;;;;;6.57;4.75;;;16.10;99.90;;;;;;5025275;28;20049;-76
2023/05/22 03:19:15;;;;;;;6.10;5.13;;;16.10;99.90;;;;;;5045185;28;20095;-76
2023/05/22 03:21:47;;;;;;;6.95;4.43;;;16.10;99.90;;;;;;5045350;28;20056;-76
2023/05/22 03:24:14;;;;;;;6.68;5.32;;;16.10;99.90;;;;;;5041269;28;20053;-76
2023/05/22 03:26:40;;;;;;;6.70;5.00;;;16.10;99.90;;;;;;5041387;28;20094;-76
2023/05/22 03:29:07;;;;;;;9.48;4.50;;;16.10;99.90;;;;;;5037688;28;20053;-76
2023/05/22 03:31:35;;;;;;;7.30;5.15;;;16.10;99.90;;;;;;5043322;28;20041;-76
2023/05/22 03:34:02;;;;;;;6.15;5.00;;;16.10;99.90;;;;;;5045506;28;20130;-77
2023/05/22 03:36:32;;;;;;;6.85;5.15;;;16.10;99.90;;;;;;5044815;28;20090;-77
2023/05/22 03:38:59;;;;;;;;;;;16.10;99.90;;;;;;5041184;28;20041;-76
2023/05/22 03:41:26;;;;;;;6.60;4.85;;;16.10;99.90;;;;;;5046468;28;19921;-76
2023/05/22 03:43:53;;;;;;;5.38;4.25;;;16.10;99.90;;;;;;5038301;28;20079;-75
2023/05/22 03:46:20;;;;;;;9.35;5.28;;;16.00;99.90;;;;;;5042342;28;20409;-76
2023/05/22 03:48:47;;;;;;;6.68;5.30;;;16.00;99.90;;;;;;5045190;28;20045;-76
2023/05/22 03:51:13;;;;;;;5.80;5.15;;;16.00;99.90;;;;;;5044477;28;20106;-75
2023/05/22 03:53:40;;;;;;;7.28;4.80;;;16.00;99.90;;;;;;5041287;28;20053;-76
2023/05/22 03:56:07;;;;;;;8.90;5.07;;;16.00;99.90;;;;;;5044550;28;20041;-76
2023/05/22 03:58:33;;;;;;;5.50;4.90;;;16.00;99.90;;;;;;5039725;28;20073;-77
2023/05/22 04:01:00;;;;;;;7.47;4.68;;;16.00;99.90;;;;;;5040801;28;20049;-76
2023/05/22 04:03:27;;;;;;;5.13;4.55;;;16.00;99.90;;;;;;5045913;28;20096;-76
2023/05/22 04:05:55;;;;;;;6.30;5.03;;;16.10;99.90;;;;;;5032180;28;20049;-76
2023/05/22 04:08:22;;;;;;;7.82;4.70;;;16.10;99.90;;;;;;5042761;28;20057;-75
2023/05/22 04:10:49;;;;;;;7.28;4.43;;;16.10;99.90;;;;;;5040080;28;20420;-76
2023/05/22 04:13:16;;;;;;;5.60;4.47;;;16.10;99.90;;;;;;5041051;28;20052;-76
2023/05/22 04:15:45;;;;;;;6.47;4.30;;;16.10;99.90;;;;;;5036783;28;20103;-75
2023/05/22 04:18:12;;;;;;;6.72;4.65;;;16.10;99.90;;;;;;5043941;28;20049;-76
2023/05/22 04:20:39;;;;;;;5.03;4.25;;;16.10;99.90;;;;;;5043204;28;20045;-77
2023/05/22 04:23:06;;;;;;;6.75;4.90;;;16.10;99.90;;;;;;5042392;28;20088;-76
2023/05/22 04:25:35;;;;;;;6.60;4.97;;;16.10;99.90;;;;;;5039220;28;20496;-76
2023/05/22 04:28:02;;;;;;;5.65;4.45;;;16.10;99.90;;;;;;5039540;28;20050;-77
2023/05/22 04:30:32;;;;;;;7.30;5.30;;;16.10;99.90;;;;;;5037133;28;20497;-76
2023/05/22 04:33:00;;;;;;;6.57;4.88;;;16.10;99.90;;;;;;5043920;28;20123;-76
2023/05/22 04:35:28;;;;;;;8.13;4.50;;;16.20;99.90;;;;;;5041570;28;20081;-76
2023/05/22 04:38:01;;;;;;;6.05;4.68;;;16.20;99.90;;;;;;5043747;28;20080;-76
2023/05/22 04:40:29;;;;;;;8.50;4.68;;;16.20;99.90;;;;;;5037195;28;20045;-76
2023/05/22 04:42:58;;;;;;;5.97;4.90;;;16.20;99.90;;;;;;5033335;28;20179;-77
2023/05/22 04:45:29;;;;;;;9.30;4.72;;;16.20;99.90;;;;;;5037344;28;20542;-75
2023/05/22 04:47:56;;;;;;;8.75;5.65;;;16.20;99.90;;;;;;5042906;28;20072;-76
2023/05/22 04:50:22;;;;;;;7.43;5.57;;;16.20;99.90;;;;;;5044182;28;20128;-77
2023/05/22 04:52:49;;;;;;;8.45;5.78;;;16.30;99.90;;;;;;5041771;28;20038;-76
2023/05/22 04:55:17;;;;;;;8.55;5.63;;;16.30;99.90;;;;;;5036788;28;20100;-76
2023/05/22 04:57:44;;;;;;;7.07;4.85;;;16.30;99.90;;;;;;5044947;28;20408;-77
2023/05/22 05:00:13;;;;;;;8.25;4.85;;;16.30;99.90;;;;;;5036531;28;20045;-76
2023/05/22 05:02:40;;;;;;;5.55;4.60;;;16.40;99.90;;;;;;5046429;28;20087;-76
2023/05/22 05:05:07;;;;;;;9.32;5.45;;;16.40;99.90;;;;;;5043007;28;20052;-75
2023/05/22 05:07:38;;;;;;;10.02;5.22;;;16.40;99.90;;;;;;5043793;28;20079;-76
2023/05/22 05:10:05;;;;;;;7.05;5.43;;;16.40;99.90;;;;;;5038336;28;20049;-76
2023/05/22 05:12:33;;;;;;;6.78;5.03;;;16.50;99.90;;;;;;5046135;28;20531;-76
2023/05/22 05:14:59;;;;;;;7.10;5.35;;;16.50;99.90;;;;;;5036623;28;20085;-76
2023/05/22 05:17:26;;;;;;;8.93;5.70;;;16.50;99.90;;;;;;5041236;28;20512;-77
2023/05/22 05:19:53;;;;;;;8.68;5.53;;;16.60;99.90;;;;;;5042731;28;20525;-76
2023/05/22 05:22:20;;;;;;;7.47;6.30;;;16.60;99.90;;;;;;5042617;28;20599;-76
2023/05/22 05:24:46;;;;;;;9.82;5.55;;;16.70;99.90;;;;;;5039655;28;20051;-76
2023/05/22 05:27:14;;;;;;;7.10;5.45;;;16.70;99.90;;;;;;5042548;28;20099;-76
2023/05/22 05:29:41;;;;;;;7.63;6.15;;;16.70;99.90;;;;;;5037954;28;20098;-76
2023/05/22 05:32:08;;;;;;;7.70;5.93;;;16.70;99.90;;;;;;5040214;28;20054;-76
2023/05/22 05:34:35;;;;;;;10.77;6.07;;;16.80;99.90;;;;;;5043792;28;20037;-77
2023/05/22 05:37:04;;;;;;;7.22;5.80;;;16.80;99.90;;;;;;5042679;28;20206;-76
2023/05/22 05:39:31;;;;;;;8.80;6.10;;;16.80;99.90;;;;;;5037400;28;20072;-77
2023/05/22 05:41:58;;;;;;;11.30;8.00;;;16.80;99.90;;;;;;5042633;28;20112;-76
2023/05/22 05:44:25;;;;;;;5.95;4.40;;;16.90;99.90;;;;;;5038549;28;20057;-76
2023/05/22 05:46:52;;;;;;;7.10;4.90;;;16.90;99.90;;;;;;5038834;28;20080;-76
2023/05/22 05:49:19;;;;;;;6.15;4.47;;;16.90;99.90;;;;;;5043500;28;20474;-76
2023/05/22 05:51:46;;;;;;;69.72;16.20;;;16.90;99.90;;;;;;5043383;28;20107;-77
2023/05/22 05:54:12;;;;;;;139.95;35.75;;;16.90;99.90;;;;;;5037717;28;20103;-76
2023/05/22 06:00:17;;;;;;;66.15;15.20;;;16.90;99.90;;;;;;5020396;28;20469;-77
2023/05/22 06:02:46;;;;;;;19.20;7.05;;;17.00;99.90;;;;;;5041015;28;20143;-76
2023/05/22 06:05:17;;;;;;;9.25;4.13;;;17.00;99.90;;;;;;5044137;28;20060;-77
2023/05/22 06:07:45;;;;;;;4.68;3.50;;;17.00;99.90;;;;;;5042901;28;20041;-76
2023/05/22 06:10:11;;;;;;;5.15;4.15;;;17.10;99.90;;;;;;5035659;28;20050;-76
2023/05/22 06:12:38;;;;;;;5.28;3.53;;;17.10;99.90;;;;;;5037478;28;20041;-77
2023/05/22 06:15:06;;;;;;;4.03;3.05;;;17.20;99.90;;;;;;5038786;28;20052;-75
2023/05/22 06:17:33;;;;;;;4.75;3.55;;;17.30;99.90;;;;;;5043488;28;20049;-76
2023/05/22 06:20:00;;;;;;;7.18;3.50;;;17.30;99.90;;;;;;5045819;28;20084;-75
2023/05/22 06:22:28;;;;;;;3.72;3.33;;;17.40;99.90;;;;;;5045113;28;20115;-76
2023/05/22 06:24:55;;;;;;;3.53;3.22;;;17.40;99.90;;;;;;5035508;28;20493;-77
2023/05/22 06:27:22;;;;;;;3.28;2.85;;;17.50;99.90;;;;;;5036108;28;20468;-75
2023/05/22 06:29:50;;;;;;;6.60;3.38;;;17.60;99.90;;;;;;5038426;28;20041;-76
2023/05/22 06:32:17;;;;;;;3.72;3.30;;;17.70;99.90;;;;;;5045346;28;20076;-76
2023/05/22 06:34:46;;;;;;;14.00;6.07;;;17.70;99.90;;;;;;5048176;28;20052;-76
2023/05/22 06:37:13;;;;;;;43.10;14.00;;;17.80;99.90;;;;;;5034733;28;20049;-76
2023/05/22 06:39:40;;;;;;;9.32;3.80;;;17.90;99.90;;;;;;5042489;28;20088;-75
2023/05/22 06:42:07;;;;;;;6.15;3.85;;;17.90;99.90;;;;;;5042548;28;20053;-77
2023/05/22 06:44:33;;;;;;;6.18;3.45;;;18.00;99.90;;;;;;5045024;28;20072;-77
2023/05/22 06:47:02;;;;;;;5.25;3.65;;;18.10;99.90;;;;;;5046726;28;20049;-76
2023/05/22 06:49:29;;;;;;;6.85;3.35;;;18.20;99.90;;;;;;5049770;28;20409;-77
2023/05/22 06:51:56;;;;;;;4.75;3.60;;;18.20;99.90;;;;;;5048125;28;20059;-76
2023/05/22 06:54:23;;;;;;;7.28;4.20;;;18.30;99.90;;;;;;5044224;28;20419;-76
2023/05/22 06:56:49;;;;;;;4.65;3.38;;;18.30;99.90;;;;;;5041034;28;20052;-75
2023/05/22 06:59:16;;;;;;;8.00;4.45;;;18.40;99.90;;;;;;5044555;28;20083;-76
2023/05/22 07:01:43;;;;;;;5.47;3.42;;;18.40;99.90;;;;;;5045702;28;20045;-77
2023/05/22 07:04:12;;;;;;;5.18;3.42;;;18.50;99.90;;;;;;5047320;28;20505;-76
2023/05/22 07:06:40;;;;;;;6.63;3.90;;;18.50;99.90;;;;;;5046212;28;20127;-76
2023/05/22 07:09:09;;;;;;;6.68;4.10;;;18.60;99.90;;;;;;5045219;28;20118;-76
2023/05/22 07:11:36;;;;;;;4.60;3.92;;;18.60;99.90;;;;;;5045735;28;20484;-77
2023/05/22 07:14:03;;;;;;;5.50;3.78;;;18.70;99.90;;;;;;5048549;28;20045;-75
2023/05/22 07:16:30;;;;;;;4.90;3.85;;;18.70;99.90;;;;;;5052300;28;20579;-76
2023/05/22 07:18:57;;;;;;;4.85;4.03;;;18.80;99.90;;;;;;5050749;28;20045;-76
2023/05/22 07:21:23;;;;;;;6.30;4.15;;;18.80;99.90;;;;;;5048654;28;20111;-75
2023/05/22 07:23:51;;;;;;;4.10;3.70;;;18.90;99.90;;;;;;5052215;28;20107;-77
2023/05/22 07:26:18;;;;;;;8.07;4.22;;;18.90;99.90;;;;;;5050552;28;20531;-75
2023/05/22 07:28:45;;;;;;;6.38;4.75;;;19.00;99.90;;;;;;5043786;28;20049;-76
2023/05/22 07:31:11;;;;;;;5.20;4.32;;;19.00;99.90;;;;;;5042766;28;20058;-75
2023/05/22 07:33:38;;;;;;;6.53;4.03;;;19.10;99.90;;;;;;5047231;28;20075;-78
2023/05/22 07:36:05;;;;;;;5.07;4.13;;;19.10;99.90;;;;;;5047421;28;20049;-76
2023/05/22 07:38:32;;;;;;;4.70;4.10;;;19.20;99.90;;;;;;5043261;28;20056;-76
2023/05/22 07:40:59;;;;;;;7.13;4.30;;;19.20;99.90;;;;;;5037417;28;20413;-76
2023/05/22 07:43:25;;;;;;;5.25;4.45;;;19.30;99.90;;;;;;5037813;28;20068;-77
2023/05/22 07:45:52;;;;;;;7.38;5.10;;;19.30;99.90;;;;;;5048219;28;20051;-77
2023/05/22 07:48:19;;;;;;;5.43;4.22;;;19.30;99.90;;;;;;5048113;28;20060;-77
2023/05/22 07:50:46;;;;;;;5.78;4.40;;;19.40;99.90;;;;;;5045160;28;20090;-76
2023/05/22 07:53:13;;;;;;;4.97;4.10;;;19.40;99.90;;;;;;5048100;28;20105;-78
2023/05/22 07:55:41;;;;;;;6.65;4.10;;;19.50;99.90;;;;;;5039577;28;20519;-78
2023/05/22 07:58:09;;;;;;;5.45;4.68;;;19.50;99.90;;;;;;5047330;28;20505;-78
2023/05/22 08:00:36;;;;;;;7.28;4.50;;;19.60;99.90;;;;;;5043952;28;20080;-78
2023/05/22 08:03:03;;;;;;;6.65;4.55;;;19.60;99.90;;;;;;5046551;28;20064;-77
2023/05/22 08:05:30;;;;;;;6.15;4.47;;;19.60;99.90;;;;;;5046749;28;20049;-78
2023/05/22 08:07:56;;;;;;;4.78;4.20;;;19.60;99.90;;;;;;5043209;28;20057;-76
2023/05/22 08:10:23;;;;;;;6.70;4.32;;;19.70;99.90;;;;;;5038428;28;20107;-76
2023/05/22 08:12:52;;;;;;;4.95;4.18;;;19.80;99.90;;;;;;5045065;28;20048;-76
2023/05/22 08:15:19;;;;;;;6.05;4.43;;;19.80;99.90;;;;;;5042717;28;20049;-75
2023/05/22 08:17:45;;;;;;;5.30;4.13;;;19.90;99.90;;;;;;5045706;28;20045;-75
2023/05/22 08:20:12;;;;;;;8.77;4.97;;;19.90;99.90;;;;;;5045828;28;20095;-76
2023/05/22 08:22:40;;;;;;;6.95;4.15;;;20.00;99.90;;;;;;5044844;28;20045;-76
2023/05/22 08:25:08;;;;;;;5.85;4.10;;;20.00;99.90;;;;;;5039680;28;20473;-78
2023/05/22 08:27:34;;;;;;;4.72;4.32;;;20.10;99.90;;;;;;5046038;28;20122;-76
2023/05/22 08:30:03;;;;;;;5.97;4.63;;;20.10;99.90;;;;;;5042104;28;20103;-79
2023/05/22 08:32:30;;;;;;;5.20;4.22;;;20.20;99.90;;;;;;5045316;28;20049;-75
2023/05/22 08:34:58;;;;;;;7.38;4.57;;;20.20;99.90;;;;;;5039257;28;20038;-75
2023/05/22 08:37:25;;;;;;;6.25;4.20;;;20.30;99.90;;;;;;5043321;28;20079;-76
2023/05/22 08:39:52;;;;;;;5.60;4.97;;;20.40;99.90;;;;;;5037152;28;20100;-75
2023/05/22 08:42:18;;;;;;;5.35;4.32;;;20.40;99.90;;;;;;5041146;28;20048;-75
2023/05/22 08:44:46;;;;;;;5.35;4.50;;;20.50;99.90;;;;;;5045364;28;20129;-76
2023/05/22 08:47:14;;;;;;;6.35;4.50;;;20.50;99.90;;;;;;5043356;28;20091;-76
2023/05/22 08:49:42;;;;;;;7.35;4.88;;;20.50;99.90;;;;;;5043611;28;20073;-75
2023/05/22 08:52:17;;;;;;;5.20;4.53;;;20.60;99.90;;;;;;5044659;28;20046;-74
2023/05/22 08:54:51;;;;;;;7.82;4.63;;;20.60;99.90;;;;;;5039125;28;20053;-76
2023/05/22 08:57:19;;;;;;;9.52;4.53;;;20.60;99.90;;;;;;5042907;28;20045;-77
2023/05/22 08:59:47;;;;;;;5.90;4.05;;;20.60;99.90;;;;;;5042422;28;20527;-76
2023/05/22 09:02:16;;;;;;;5.53;4.60;;;20.70;99.90;;;;;;5036612;28;20053;-75
2023/05/22 09:04:42;;;;;;;7.15;4.60;;;20.70;99.90;;;;;;5038573;28;20118;-76
2023/05/22 09:07:09;;;;;;;5.32;4.45;;;20.80;99.90;;;;;;5043268;28;20056;-75
2023/05/22 09:09:37;;;;;;;6.22;4.53;;;20.80;99.90;;;;;;5039204;28;20098;-75
2023/05/22 09:12:08;;;;;;;7.07;4.43;;;20.80;99.90;;;;;;5037837;28;20467;-75
2023/05/22 09:14:40;;;;;;;5.78;4.63;;;20.90;99.90;;;;;;5045613;28;20500;-75
2023/05/22 09:17:09;;;;;;;5.32;4.38;;;20.90;99.90;;;;;;5042669;28;20492;-75
2023/05/22 09:19:41;;;;;;;6.23;5.07;;;21.00;99.90;;;;;;5041233;28;20049;-76
2023/05/22 09:22:08;;;;;;;6.13;5.40;;;21.10;99.90;;;;;;5045026;28;20053;-76
2023/05/22 09:24:42;;;;;;;5.53;4.32;;;21.10;99.90;;;;;;5037545;28;20127;-76
2023/05/22 09:27:10;;;;;;;9.27;4.38;;;21.10;99.90;;;;;;5040715;28;20053;-76
2023/05/22 09:29:47;;;;;;;8.30;4.90;;;21.20;99.90;;;;;;5041455;28;20049;-77
2023/05/22 09:32:15;;;;;;;9.13;4.97;;;21.20;99.90;;;;;;5044475;28;20087;-76
2023/05/22 09:34:43;;;;;;;6.22;5.25;;;21.20;99.90;;;;;;5023813;28;20120;-76
2023/05/22 09:37:13;;;;;;;5.63;4.53;;;21.30;99.90;;;;;;5028190;28;20037;-76
2023/05/22 09:39:45;;;;;;;9.52;5.05;;;21.30;99.90;;;;;;5017322;28;20440;-76
2023/05/22 09:42:14;;;;;;;6.78;4.95;;;21.30;99.90;;;;;;5041293;28;20076;-75
2023/05/22 09:44:43;;;;;;;7.43;5.25;;;21.30;99.90;;;;;;5041458;28;20041;-76
2023/05/22 09:47:10;;;;;;;8.02;5.30;;;21.40;99.90;;;;;;5041544;28;20053;-75
2023/05/22 09:49:42;;;;;;;8.23;5.75;;;21.40;99.90;;;;;;5042027;28;20045;-77
2023/05/22 09:52:13;;;;;;;8.98;5.32;;;21.50;99.90;;;;;;5046550;28;20041;-75
2023/05/22 09:54:53;;;;;;;11.32;5.57;;;21.50;99.90;;;;;;5036220;28;20114;-76
2023/05/22 09:57:21;;;;;;;;;;;21.60;99.90;;;;;;5020795;28;20045;-76
2023/05/22 09:59:56;;;;;;;9.25;5.63;;;21.60;99.90;;;;;;5039253;28;19952;-77
2023/05/22 10:02:24;;;;;;;6.18;5.00;;;21.60;99.90;;;;;;5043066;28;20053;-75
2023/05/22 10:04:53;;;;;;;8.15;5.22;;;21.60;99.90;;;;;;5042901;28;20456;-75
2023/05/22 10:07:33;;;;;;;7.32;4.85;;;21.60;99.90;;;;;;5047384;28;20049;-76
2023/05/22 10:10:08;;;;;;;7.35;5.80;;;21.80;99.90;;;;;;5044701;28;20041;-77
2023/05/22 10:12:52;;;;;;;8.88;5.50;;;21.80;99.90;;;;;;5040731;28;20045;-77
2023/05/22 10:15:20;;;;;;;7.72;5.43;;;21.80;99.90;;;;;;5045637;28;20448;-76
2023/05/22 10:17:48;;;;;;;6.93;4.90;;;21.90;99.90;;;;;;5048447;28;20045;-77
2023/05/22 10:20:15;;;;;;;8.32;5.88;;;22.00;99.90;;;;;;5033433;28;20056;-76
2023/05/22 10:22:43;;;;;;;11.23;5.70;;;22.00;99.90;;;;;;5047605;28;20049;-77
2023/05/22 10:25:10;;;;;;;11.93;6.13;;;22.00;99.90;;;;;;5040629;28;20140;-77
2023/05/22 10:27:39;;;;;;;7.78;4.90;;;22.00;99.90;;;;;;5044450;28;20052;-76
2023/05/22 10:30:31;;;;;;;7.60;5.85;;;22.10;99.90;;;;;;5046582;28;20050;-76
2023/05/22 10:33:29;;;;;;;6.82;5.80;;;22.20;99.90;;;;;;5044343;28;20467;-76
2023/05/22 10:36:01;;;;;;;5.90;5.07;;;22.30;99.90;;;;;;5043004;28;20049;-76
2023/05/22 10:38:49;;;;;;;8.10;5.32;;;22.30;99.90;;;;;;5047700;28;20412;-76
2023/05/22 10:41:17;;;;;;;7.50;6.35;;;22.30;99.90;;;;;;5041690;28;20049;-75
2023/05/22 10:43:48;;;;;;;6.18;5.55;;;22.40;99.90;;;;;;5045166;28;20102;-76
2023/05/22 10:46:15;;;;;;;9.50;5.88;;;22.50;99.90;;;;;;5043863;28;20516;-75
2023/05/22 10:48:46;;;;;;;8.57;5.30;;;22.50;99.90;;;;;;5044875;28;20048;-77
2023/05/22 10:51:16;;;;;;;5.55;4.88;;;22.50;99.90;;;;;;5044792;28;20052;-76
2023/05/22 10:53:46;;;;;;;;;;;22.50;99.90;;;;;;5049786;28;20087;-77
2023/05/22 10:56:16;;;;;;;8.85;5.97;;;22.60;99.90;;;;;;5023854;28;19971;-76
2023/05/22 10:58:54;;;;;;;6.85;5.30;;;22.60;99.90;;;;;;5044302;28;20120;-76
2023/05/22 11:01:24;;;;;;;7.63;4.95;;;22.70;99.90;;;;;;5045136;28;20084;-75
2023/05/22 11:04:08;;;;;;;6.38;5.10;;;22.70;99.90;;;;;;5044121;28;20045;-77
2023/05/22 11:06:34;;;;;;;8.65;5.20;;;22.70;99.90;;;;;;5045737;28;20472;-76
2023/05/22 11:09:33;;;;;;;5.22;4.70;;;22.70;99.90;;;;;;5043452;28;20108;-77
2023/05/22 11:12:23;;;;;;;5.82;4.63;;;22.70;99.90;;;;;;5036691;28;20061;-77
2023/05/22 11:14:50;;;;;;;5.32;4.72;;;22.80;99.90;;;;;;5043902;28;20037;-76
2023/05/22 11:17:24;;;;;;;7.95;5.03;;;22.90;99.90;;;;;;5044479;28;20079;-77
2023/05/22 11:20:01;;;;;;;5.95;4.95;;;22.90;99.90;;;;;;5040356;28;20421;-77
2023/05/22 11:22:40;;;;;;;8.77;5.25;;;23.10;99.90;;;;;;5045262;28;20120;-77
2023/05/22 11:25:15;;;;;;;8.07;6.15;;;23.20;99.90;;;;;;5040297;28;20520;-76
2023/05/22 11:27:43;;;;;;;6.32;4.72;;;23.40;99.90;;;;;;5044844;28;20055;-77
2023/05/22 11:30:11;;;;;;;6.60;5.18;;;23.50;99.90;;;;;;5043920;28;20095;-75
2023/05/22 11:32:40;;;;;;;7.88;5.13;;;23.60;99.90;;;;;;5046332;28;20133;-77
2023/05/22 11:35:07;;;;;;;6.15;5.15;;;23.70;99.90;;;;;;5040488;28;20140;-77
2023/05/22 11:37:40;;;;;;;7.60;5.28;;;23.90;99.90;;;;;;5046619;28;20425;-76
2023/05/22 11:40:08;;;;;;;6.20;5.20;;;24.10;99.90;;;;;;5043175;28;20052;-77
2023/05/22 11:42:36;;;;;;;6.20;4.85;;;24.30;99.90;;;;;;5026284;28;20513;-77
2023/05/22 11:45:04;;;;;;;10.02;5.95;;;24.50;99.90;;;;;;5045147;28;20516;-77
2023/05/22 11:47:31;;;;;;;6.07;5.07;;;24.70;99.90;;;;;;5038900;28;20053;-77
2023/05/22 11:49:58;;;;;;;5.07;4.57;;;24.80;99.90;;;;;;5040407;28;20053;-77
2023/05/22 11:52:31;;;;;;;7.10;5.60;;;25.00;99.90;;;;;;5043668;28;20513;-77
2023/05/22 11:54:58;;;;;;;5.10;4.60;;;25.20;99.90;;;;;;5037605;28;20095;-77
2023/05/22 11:57:25;;;;;;;5.85;5.25;;;25.30;99.90;;;;;;5040402;28;20053;-77
2023/05/22 11:59:52;;;;;;;5.90;5.30;;;25.50;99.90;;;;;;5048449;28;20041;-77
2023/05/22 12:02:19;;;;;;;8.02;5.15;;;25.60;99.90;;;;;;5044034;28;20071;-77
2023/05/22 12:04:46;;;;;;;6.10;5.50;;;25.70;99.90;;;;;;5041106;28;20048;-77
2023/05/22 12:07:13;;;;;;;5.90;5.30;;;25.90;99.90;;;;;;5046310;28;20054;-77
2023/05/22 12:09:41;;;;;;;6.70;5.22;;;25.90;99.90;;;;;;5039004;28;20533;-77
2023/05/22 12:12:10;;;;;;;6.60;5.50;;;26.00;99.90;;;;;;5040982;28;20049;-77
2023/05/22 12:14:37;;;;;;;6.25;5.63;;;26.10;99.90;;;;;;5045690;28;20056;-77
2023/05/22 12:17:04;;;;;;;6.03;5.43;;;26.10;99.90;;;;;;5044656;28;20056;-77
2023/05/22 12:19:31;;;;;;;6.75;5.15;;;26.10;99.90;;;;;;5041019;28;20084;-76
2023/05/22 12:21:58;;;;;;;6.80;5.35;;;26.20;99.90;;;;;;5044002;28;20099;-77
2023/05/22 12:24:25;;;;;;;6.70;5.05;;;26.20;99.90;;;;;;5038575;28;20095;-77
2023/05/22 12:26:52;;;;;;;7.05;5.30;;;26.30;99.90;;;;;;5043538;28;20041;-78
2023/05/22 12:29:22;;;;;;;6.40;5.13;;;26.30;99.90;;;;;;5044655;28;20088;-76
2023/05/22 12:31:49;;;;;;;8.88;5.10;;;26.30;99.90;;;;;;5043810;28;20128;-77
2023/05/22 12:34:19;;;;;;;7.78;5.78;;;26.30;99.90;;;;;;5040428;28;20131;-76
2023/05/22 12:36:47;;;;;;;7.78;4.85;;;26.30;99.90;;;;;;5042114;28;20106;-77
2023/05/22 12:39:17;;;;;;;8.40;5.70;;;26.30;99.90;;;;;;5039104;28;20077;-76
2023/05/22 12:41:45;;;;;;;9.35;5.30;;;26.30;99.90;;;;;;5038951;28;20051;-77
2023/05/22 12:44:15;;;;;;;8.43;5.80;;;26.30;99.90;;;;;;5045346;28;20049;-77
2023/05/22 12:46:42;;;;;;;7.05;5.10;;;26.30;99.90;;;;;;5026177;28;20045;-76
2023/05/22 12:49:10;;;;;;;5.93;5.32;;;26.30;99.90;;;;;;5040092;28;20100;-77
2023/05/22 12:51:36;;;;;;;7.00;6.00;;;26.40;99.90;;;;;;5043422;28;20052;-77
2023/05/22 12:54:03;;;;;;;8.70;5.15;;;26.40;99.90;;;;;;5043473;28;20045;-77
2023/05/22 12:56:31;;;;;;;12.00;5.82;;;26.40;99.90;;;;;;5037310;28;20413;-77
2023/05/22 12:58:57;;;;;;;7.68;5.55;;;26.50;99.90;;;;;;5044897;28;20099;-78
2023/05/22 13:01:24;;;;;;;5.45;4.63;;;26.50;99.90;;;;;;5043305;28;20086;-77